sensor_id;sensor_type;location;lat;lon;timestamp;P1;durP1;ratioP1;P2;durP2;ratioP2
35693;SDS011;21812;55.536;37.664;2023-08-06T00:01:51;15.70;;;10.90;;
35693;SDS011;21812;55.536;37.664;2023-08-06T00:04:17;15.32;;;9.77;;
35693;SDS011;21812;55.536;37.664;2023-08-06T00:06:43;14.95;;;10.05;;
35693;SDS011;21812;55.536;37.664;2023-08-06T00:09:08;12.90;;;9.30;;
35693;SDS011;21812;55.536;37.664;2023-08-06T00:11:34;13.45;;;10.23;;
35693;SDS011;21812;55.536;37.664;2023-08-06T00:14:00;14.57;;;10.13;;
35693;SDS011;21812;55.536;37.664;2023-08-06T00:16:26;16.38;;;9.90;;
35693;SDS011;21812;55.536;37.664;2023-08-06T00:18:51;13.27;;;9.80;;
35693;SDS011;21812;55.536;37.664;2023-08-06T00:21:17;15.63;;;9.90;;
35693;SDS011;21812;55.536;37.664;2023-08-06T00:23:42;16.70;;;10.70;;
35693;SDS011;21812;55.536;37.664;2023-08-06T00:26:08;13.30;;;9.75;;
35693;SDS011;21812;55.536;37.664;2023-08-06T00:28:34;15.27;;;9.93;;
35693;SDS011;21812;55.536;37.664;2023-08-06T00:31:00;16.65;;;9.93;;
35693;SDS011;21812;55.536;37.664;2023-08-06T00:33:26;16.35;;;10.88;;
35693;SDS011;21812;55.536;37.664;2023-08-06T00:35:51;15.25;;;10.35;;
35693;SDS011;21812;55.536;37.664;2023-08-06T00:38:17;14.00;;;9.55;;
35693;SDS011;21812;55.536;37.664;2023-08-06T00:40:43;18.73;;;10.77;;
35693;SDS011;21812;55.536;37.664;2023-08-06T00:43:09;13.30;;;9.48;;
35693;SDS011;21812;55.536;37.664;2023-08-06T00:45:36;15.55;;;9.80;;
35693;SDS011;21812;55.536;37.664;2023-08-06T00:48:02;19.08;;;10.70;;
35693;SDS011;21812;55.536;37.664;2023-08-06T00:50:30;17.73;;;9.48;;
35693;SDS011;21812;55.536;37.664;2023-08-06T00:52:56;18.67;;;9.80;;
35693;SDS011;21812;55.536;37.664;2023-08-06T00:55:22;10.65;;;9.43;;
35693;SDS011;21812;55.536;37.664;2023-08-06T00:57:48;12.73;;;9.30;;
35693;SDS011;21812;55.536;37.664;2023-08-06T01:00:15;14.27;;;8.63;;
35693;SDS011;21812;55.536;37.664;2023-08-06T01:02:41;16.15;;;9.52;;
35693;SDS011;21812;55.536;37.664;2023-08-06T01:05:07;13.40;;;9.13;;
35693;SDS011;21812;55.536;37.664;2023-08-06T01:13:16;15.57;;;8.13;;
35693;SDS011;21812;55.536;37.664;2023-08-06T01:15:54;13.85;;;8.00;;
35693;SDS011;21812;55.536;37.664;2023-08-06T01:18:25;14.18;;;8.85;;
35693;SDS011;21812;55.536;37.664;2023-08-06T01:20:51;11.80;;;7.93;;
35693;SDS011;21812;55.536;37.664;2023-08-06T01:23:17;12.73;;;8.27;;
35693;SDS011;21812;55.536;37.664;2023-08-06T01:28:40;14.35;;;7.57;;
35693;SDS011;21812;55.536;37.664;2023-08-06T01:31:19;10.43;;;7.85;;
35693;SDS011;21812;55.536;37.664;2023-08-06T01:33:49;12.95;;;7.60;;
35693;SDS011;21812;55.536;37.664;2023-08-06T01:36:17;12.85;;;7.82;;
35693;SDS011;21812;55.536;37.664;2023-08-06T01:38:45;11.40;;;7.70;;
35693;SDS011;21812;55.536;37.664;2023-08-06T01:41:11;9.95;;;7.38;;
35693;SDS011;21812;55.536;37.664;2023-08-06T01:43:37;15.48;;;8.52;;
35693;SDS011;21812;55.536;37.664;2023-08-06T01:46:02;11.32;;;7.75;;
35693;SDS011;21812;55.536;37.664;2023-08-06T01:48:28;10.98;;;7.25;;
35693;SDS011;21812;55.536;37.664;2023-08-06T01:50:54;11.82;;;7.93;;
35693;SDS011;21812;55.536;37.664;2023-08-06T01:53:20;12.32;;;8.63;;
35693;SDS011;21812;55.536;37.664;2023-08-06T01:55:48;10.05;;;7.03;;
35693;SDS011;21812;55.536;37.664;2023-08-06T01:58:15;9.52;;;7.75;;
35693;SDS011;21812;55.536;37.664;2023-08-06T02:00:41;8.15;;;6.97;;
35693;SDS011;21812;55.536;37.664;2023-08-06T02:03:06;9.98;;;7.45;;
35693;SDS011;21812;55.536;37.664;2023-08-06T02:05:32;14.13;;;7.80;;
35693;SDS011;21812;55.536;37.664;2023-08-06T02:07:58;9.40;;;7.95;;
35693;SDS011;21812;55.536;37.664;2023-08-06T02:10:24;9.40;;;7.80;;
35693;SDS011;21812;55.536;37.664;2023-08-06T02:12:50;10.05;;;7.85;;
35693;SDS011;21812;55.536;37.664;2023-08-06T02:15:15;13.65;;;7.53;;
35693;SDS011;21812;55.536;37.664;2023-08-06T02:17:41;10.45;;;7.43;;
35693;SDS011;21812;55.536;37.664;2023-08-06T02:20:27;11.82;;;7.35;;
35693;SDS011;21812;55.536;37.664;2023-08-06T02:22:53;11.05;;;7.13;;
35693;SDS011;21812;55.536;37.664;2023-08-06T02:25:19;10.50;;;7.13;;
35693;SDS011;21812;55.536;37.664;2023-08-06T02:27:46;12.75;;;7.82;;
35693;SDS011;21812;55.536;37.664;2023-08-06T02:30:11;7.93;;;7.13;;
35693;SDS011;21812;55.536;37.664;2023-08-06T02:32:38;12.55;;;7.55;;
35693;SDS011;21812;55.536;37.664;2023-08-06T02:35:04;9.60;;;7.30;;
35693;SDS011;21812;55.536;37.664;2023-08-06T02:37:32;10.82;;;7.32;;
35693;SDS011;21812;55.536;37.664;2023-08-06T02:40:00;13.40;;;8.15;;
35693;SDS011;21812;55.536;37.664;2023-08-06T02:42:25;12.45;;;8.05;;
35693;SDS011;21812;55.536;37.664;2023-08-06T02:44:52;11.05;;;8.43;;
35693;SDS011;21812;55.536;37.664;2023-08-06T02:47:20;10.98;;;8.07;;
35693;SDS011;21812;55.536;37.664;2023-08-06T02:49:46;16.08;;;9.10;;
35693;SDS011;21812;55.536;37.664;2023-08-06T02:52:12;12.07;;;7.93;;
35693;SDS011;21812;55.536;37.664;2023-08-06T02:54:38;15.05;;;9.07;;
35693;SDS011;21812;55.536;37.664;2023-08-06T02:57:05;15.98;;;8.23;;
35693;SDS011;21812;55.536;37.664;2023-08-06T02:59:33;15.50;;;7.85;;
35693;SDS011;21812;55.536;37.664;2023-08-06T03:02:17;9.85;;;7.22;;
35693;SDS011;21812;55.536;37.664;2023-08-06T03:04:55;11.10;;;7.47;;
35693;SDS011;21812;55.536;37.664;2023-08-06T03:07:24;17.27;;;7.80;;
35693;SDS011;21812;55.536;37.664;2023-08-06T03:09:55;10.13;;;7.78;;
35693;SDS011;21812;55.536;37.664;2023-08-06T03:12:20;9.63;;;7.22;;
35693;SDS011;21812;55.536;37.664;2023-08-06T03:14:47;9.75;;;6.82;;
35693;SDS011;21812;55.536;37.664;2023-08-06T03:17:13;10.82;;;7.20;;
35693;SDS011;21812;55.536;37.664;2023-08-06T03:19:40;11.75;;;8.07;;
35693;SDS011;21812;55.536;37.664;2023-08-06T03:22:06;13.98;;;7.57;;
35693;SDS011;21812;55.536;37.664;2023-08-06T03:24:33;14.15;;;8.57;;
35693;SDS011;21812;55.536;37.664;2023-08-06T03:26:59;13.13;;;8.20;;
35693;SDS011;21812;55.536;37.664;2023-08-06T03:29:25;9.88;;;7.70;;
35693;SDS011;21812;55.536;37.664;2023-08-06T03:31:52;11.98;;;7.65;;
35693;SDS011;21812;55.536;37.664;2023-08-06T03:34:18;12.63;;;7.75;;
35693;SDS011;21812;55.536;37.664;2023-08-06T03:36:44;12.38;;;7.82;;
35693;SDS011;21812;55.536;37.664;2023-08-06T03:39:10;14.43;;;9.18;;
35693;SDS011;21812;55.536;37.664;2023-08-06T03:41:36;15.05;;;8.85;;
35693;SDS011;21812;55.536;37.664;2023-08-06T03:44:02;15.07;;;8.20;;
35693;SDS011;21812;55.536;37.664;2023-08-06T03:46:29;16.13;;;8.93;;
35693;SDS011;21812;55.536;37.664;2023-08-06T03:49:00;13.85;;;8.80;;
35693;SDS011;21812;55.536;37.664;2023-08-06T03:51:26;14.52;;;9.25;;
35693;SDS011;21812;55.536;37.664;2023-08-06T03:53:53;15.18;;;8.52;;
35693;SDS011;21812;55.536;37.664;2023-08-06T03:56:18;20.80;;;8.60;;
35693;SDS011;21812;55.536;37.664;2023-08-06T03:58:44;11.52;;;7.85;;
35693;SDS011;21812;55.536;37.664;2023-08-06T04:01:10;10.18;;;7.43;;
35693;SDS011;21812;55.536;37.664;2023-08-06T04:03:44;11.55;;;7.30;;
35693;SDS011;21812;55.536;37.664;2023-08-06T04:06:11;11.40;;;7.25;;
35693;SDS011;21812;55.536;37.664;2023-08-06T04:08:37;10.70;;;6.80;;
35693;SDS011;21812;55.536;37.664;2023-08-06T04:11:02;12.63;;;6.85;;
35693;SDS011;21812;55.536;37.664;2023-08-06T04:13:29;12.23;;;7.47;;
35693;SDS011;21812;55.536;37.664;2023-08-06T04:16:03;17.20;;;8.77;;
35693;SDS011;21812;55.536;37.664;2023-08-06T04:18:31;9.38;;;6.20;;
35693;SDS011;21812;55.536;37.664;2023-08-06T04:20:56;12.13;;;6.93;;
35693;SDS011;21812;55.536;37.664;2023-08-06T04:23:23;12.10;;;6.93;;
35693;SDS011;21812;55.536;37.664;2023-08-06T04:25:55;10.43;;;7.22;;
35693;SDS011;21812;55.536;37.664;2023-08-06T04:28:23;11.75;;;6.30;;
35693;SDS011;21812;55.536;37.664;2023-08-06T04:30:48;8.70;;;5.75;;
35693;SDS011;21812;55.536;37.664;2023-08-06T04:33:14;7.68;;;5.70;;
35693;SDS011;21812;55.536;37.664;2023-08-06T04:35:41;11.45;;;5.85;;
35693;SDS011;21812;55.536;37.664;2023-08-06T04:38:07;10.68;;;5.95;;
35693;SDS011;21812;55.536;37.664;2023-08-06T04:40:33;10.25;;;5.75;;
35693;SDS011;21812;55.536;37.664;2023-08-06T04:43:02;28.60;;;7.78;;
35693;SDS011;21812;55.536;37.664;2023-08-06T04:45:31;21.50;;;7.05;;
35693;SDS011;21812;55.536;37.664;2023-08-06T04:47:57;20.10;;;8.50;;
35693;SDS011;21812;55.536;37.664;2023-08-06T04:50:22;23.08;;;6.63;;
35693;SDS011;21812;55.536;37.664;2023-08-06T04:52:48;10.25;;;5.57;;
35693;SDS011;21812;55.536;37.664;2023-08-06T04:55:14;14.57;;;5.72;;
35693;SDS011;21812;55.536;37.664;2023-08-06T04:57:39;10.98;;;5.82;;
35693;SDS011;21812;55.536;37.664;2023-08-06T05:00:05;9.68;;;7.00;;
35693;SDS011;21812;55.536;37.664;2023-08-06T05:02:32;14.13;;;6.00;;
35693;SDS011;21812;55.536;37.664;2023-08-06T05:04:58;13.65;;;6.22;;
35693;SDS011;21812;55.536;37.664;2023-08-06T05:07:24;10.82;;;5.65;;
35693;SDS011;21812;55.536;37.664;2023-08-06T05:09:50;9.13;;;5.95;;
35693;SDS011;21812;55.536;37.664;2023-08-06T05:12:15;6.55;;;5.43;;
35693;SDS011;21812;55.536;37.664;2023-08-06T05:14:41;8.52;;;5.80;;
35693;SDS011;21812;55.536;37.664;2023-08-06T05:17:07;12.43;;;6.35;;
35693;SDS011;21812;55.536;37.664;2023-08-06T05:19:32;10.13;;;6.47;;
35693;SDS011;21812;55.536;37.664;2023-08-06T05:21:58;10.80;;;6.00;;
35693;SDS011;21812;55.536;37.664;2023-08-06T05:24:24;9.60;;;5.25;;
35693;SDS011;21812;55.536;37.664;2023-08-06T05:26:49;7.38;;;5.40;;
35693;SDS011;21812;55.536;37.664;2023-08-06T05:29:16;7.85;;;5.45;;
35693;SDS011;21812;55.536;37.664;2023-08-06T05:31:41;22.20;;;7.65;;
35693;SDS011;21812;55.536;37.664;2023-08-06T05:34:07;10.98;;;6.18;;
35693;SDS011;21812;55.536;37.664;2023-08-06T05:36:33;11.07;;;5.45;;
35693;SDS011;21812;55.536;37.664;2023-08-06T05:38:59;15.30;;;5.95;;
35693;SDS011;21812;55.536;37.664;2023-08-06T05:41:24;9.07;;;5.03;;
35693;SDS011;21812;55.536;37.664;2023-08-06T05:43:50;10.10;;;4.72;;
35693;SDS011;21812;55.536;37.664;2023-08-06T05:46:16;6.47;;;4.85;;
35693;SDS011;21812;55.536;37.664;2023-08-06T05:48:41;8.07;;;6.03;;
35693;SDS011;21812;55.536;37.664;2023-08-06T05:51:07;11.40;;;5.75;;
35693;SDS011;21812;55.536;37.664;2023-08-06T05:53:33;8.60;;;6.45;;
35693;SDS011;21812;55.536;37.664;2023-08-06T05:55:59;13.85;;;5.25;;
35693;SDS011;21812;55.536;37.664;2023-08-06T05:58:24;16.83;;;5.90;;
35693;SDS011;21812;55.536;37.664;2023-08-06T06:00:53;13.80;;;5.43;;
35693;SDS011;21812;55.536;37.664;2023-08-06T06:03:19;8.80;;;4.80;;
35693;SDS011;21812;55.536;37.664;2023-08-06T06:05:45;9.45;;;5.45;;
35693;SDS011;21812;55.536;37.664;2023-08-06T06:08:10;11.25;;;6.38;;
35693;SDS011;21812;55.536;37.664;2023-08-06T06:10:36;16.40;;;6.75;;
35693;SDS011;21812;55.536;37.664;2023-08-06T06:13:02;9.13;;;6.03;;
35693;SDS011;21812;55.536;37.664;2023-08-06T06:15:28;18.33;;;7.07;;
35693;SDS011;21812;55.536;37.664;2023-08-06T06:17:53;7.43;;;5.85;;
35693;SDS011;21812;55.536;37.664;2023-08-06T06:20:19;15.65;;;7.35;;
35693;SDS011;21812;55.536;37.664;2023-08-06T06:22:45;11.77;;;7.35;;
35693;SDS011;21812;55.536;37.664;2023-08-06T06:25:10;11.00;;;7.55;;
35693;SDS011;21812;55.536;37.664;2023-08-06T06:27:36;10.32;;;7.40;;
35693;SDS011;21812;55.536;37.664;2023-08-06T06:30:02;24.73;;;7.93;;
35693;SDS011;21812;55.536;37.664;2023-08-06T06:32:31;12.48;;;6.15;;
35693;SDS011;21812;55.536;37.664;2023-08-06T06:34:56;10.82;;;5.22;;
35693;SDS011;21812;55.536;37.664;2023-08-06T06:37:24;9.40;;;6.25;;
35693;SDS011;21812;55.536;37.664;2023-08-06T06:39:49;9.38;;;7.20;;
35693;SDS011;21812;55.536;37.664;2023-08-06T06:42:15;7.30;;;5.97;;
35693;SDS011;21812;55.536;37.664;2023-08-06T06:44:45;10.00;;;5.05;;
35693;SDS011;21812;55.536;37.664;2023-08-06T06:47:10;8.43;;;5.50;;
35693;SDS011;21812;55.536;37.664;2023-08-06T06:49:36;6.95;;;5.88;;
35693;SDS011;21812;55.536;37.664;2023-08-06T06:52:02;10.57;;;6.10;;
35693;SDS011;21812;55.536;37.664;2023-08-06T06:54:27;6.07;;;5.45;;
35693;SDS011;21812;55.536;37.664;2023-08-06T06:56:53;10.75;;;5.90;;
35693;SDS011;21812;55.536;37.664;2023-08-06T06:59:19;4.50;;;4.05;;
35693;SDS011;21812;55.536;37.664;2023-08-06T07:01:44;8.90;;;4.93;;
35693;SDS011;21812;55.536;37.664;2023-08-06T07:04:10;9.73;;;4.38;;
35693;SDS011;21812;55.536;37.664;2023-08-06T07:06:36;9.93;;;4.80;;
35693;SDS011;21812;55.536;37.664;2023-08-06T07:09:01;6.70;;;5.10;;
35693;SDS011;21812;55.536;37.664;2023-08-06T07:11:27;11.55;;;5.32;;
35693;SDS011;21812;55.536;37.664;2023-08-06T07:13:56;6.35;;;4.25;;
35693;SDS011;21812;55.536;37.664;2023-08-06T07:16:26;9.07;;;4.90;;
35693;SDS011;21812;55.536;37.664;2023-08-06T07:18:53;6.25;;;4.60;;
35693;SDS011;21812;55.536;37.664;2023-08-06T07:21:19;4.90;;;4.50;;
35693;SDS011;21812;55.536;37.664;2023-08-06T07:23:45;9.85;;;4.53;;
35693;SDS011;21812;55.536;37.664;2023-08-06T07:26:11;10.05;;;5.00;;
35693;SDS011;21812;55.536;37.664;2023-08-06T07:28:37;5.43;;;3.88;;
35693;SDS011;21812;55.536;37.664;2023-08-06T07:31:03;7.85;;;4.97;;
35693;SDS011;21812;55.536;37.664;2023-08-06T07:33:29;6.10;;;5.28;;
35693;SDS011;21812;55.536;37.664;2023-08-06T07:35:55;8.55;;;6.50;;
35693;SDS011;21812;55.536;37.664;2023-08-06T07:38:21;6.65;;;4.70;;
35693;SDS011;21812;55.536;37.664;2023-08-06T07:40:47;10.20;;;6.20;;
35693;SDS011;21812;55.536;37.664;2023-08-06T07:43:12;9.60;;;4.97;;
35693;SDS011;21812;55.536;37.664;2023-08-06T07:45:38;15.32;;;11.50;;
35693;SDS011;21812;55.536;37.664;2023-08-06T07:48:04;6.93;;;5.25;;
35693;SDS011;21812;55.536;37.664;2023-08-06T07:50:30;8.85;;;5.45;;
35693;SDS011;21812;55.536;37.664;2023-08-06T07:52:55;8.43;;;5.70;;
35693;SDS011;21812;55.536;37.664;2023-08-06T07:55:21;7.18;;;4.93;;
35693;SDS011;21812;55.536;37.664;2023-08-06T07:57:47;7.43;;;4.88;;
35693;SDS011;21812;55.536;37.664;2023-08-06T08:00:13;6.22;;;4.90;;
35693;SDS011;21812;55.536;37.664;2023-08-06T08:02:39;7.60;;;4.45;;
35693;SDS011;21812;55.536;37.664;2023-08-06T08:05:04;8.35;;;4.72;;
35693;SDS011;21812;55.536;37.664;2023-08-06T08:07:32;8.02;;;5.03;;
35693;SDS011;21812;55.536;37.664;2023-08-06T08:09:58;12.35;;;5.95;;
35693;SDS011;21812;55.536;37.664;2023-08-06T08:12:24;6.63;;;4.60;;
35693;SDS011;21812;55.536;37.664;2023-08-06T08:14:49;6.50;;;5.13;;
35693;SDS011;21812;55.536;37.664;2023-08-06T08:17:15;6.32;;;5.72;;
35693;SDS011;21812;55.536;37.664;2023-08-06T08:19:41;4.95;;;4.35;;
35693;SDS011;21812;55.536;37.664;2023-08-06T08:22:07;9.75;;;4.95;;
35693;SDS011;21812;55.536;37.664;2023-08-06T08:24:33;6.28;;;5.15;;
35693;SDS011;21812;55.536;37.664;2023-08-06T08:26:58;8.98;;;4.57;;
35693;SDS011;21812;55.536;37.664;2023-08-06T08:29:24;9.35;;;4.75;;
35693;SDS011;21812;55.536;37.664;2023-08-06T08:31:50;6.60;;;4.70;;
35693;SDS011;21812;55.536;37.664;2023-08-06T08:34:16;5.70;;;4.85;;
35693;SDS011;21812;55.536;37.664;2023-08-06T08:36:42;5.68;;;5.05;;
35693;SDS011;21812;55.536;37.664;2023-08-06T08:39:08;9.75;;;5.90;;
35693;SDS011;21812;55.536;37.664;2023-08-06T08:41:35;7.40;;;5.07;;
35693;SDS011;21812;55.536;37.664;2023-08-06T08:44:02;7.07;;;4.95;;
35693;SDS011;21812;55.536;37.664;2023-08-06T08:46:31;8.48;;;4.95;;
35693;SDS011;21812;55.536;37.664;2023-08-06T08:48:58;5.90;;;4.38;;
35693;SDS011;21812;55.536;37.664;2023-08-06T08:51:25;11.35;;;5.32;;
35693;SDS011;21812;55.536;37.664;2023-08-06T08:53:53;16.42;;;5.38;;
35693;SDS011;21812;55.536;37.664;2023-08-06T08:56:23;6.22;;;5.05;;
35693;SDS011;21812;55.536;37.664;2023-08-06T08:58:50;8.88;;;5.65;;
35693;SDS011;21812;55.536;37.664;2023-08-06T09:01:18;11.23;;;5.43;;
35693;SDS011;21812;55.536;37.664;2023-08-06T09:03:46;9.02;;;5.57;;
35693;SDS011;21812;55.536;37.664;2023-08-06T09:06:13;10.18;;;5.80;;
35693;SDS011;21812;55.536;37.664;2023-08-06T09:08:41;9.00;;;5.95;;
35693;SDS011;21812;55.536;37.664;2023-08-06T09:11:12;7.43;;;4.68;;
35693;SDS011;21812;55.536;37.664;2023-08-06T09:13:38;9.50;;;4.07;;
35693;SDS011;21812;55.536;37.664;2023-08-06T09:16:04;6.90;;;4.55;;
35693;SDS011;21812;55.536;37.664;2023-08-06T09:18:30;7.25;;;5.13;;
35693;SDS011;21812;55.536;37.664;2023-08-06T09:20:57;6.88;;;5.22;;
35693;SDS011;21812;55.536;37.664;2023-08-06T09:23:29;6.45;;;4.13;;
35693;SDS011;21812;55.536;37.664;2023-08-06T09:25:56;6.85;;;5.13;;
35693;SDS011;21812;55.536;37.664;2023-08-06T09:28:23;6.38;;;4.63;;
35693;SDS011;21812;55.536;37.664;2023-08-06T09:30:49;13.38;;;5.03;;
35693;SDS011;21812;55.536;37.664;2023-08-06T09:33:18;6.95;;;4.45;;
35693;SDS011;21812;55.536;37.664;2023-08-06T09:35:45;5.88;;;5.07;;
35693;SDS011;21812;55.536;37.664;2023-08-06T09:38:12;12.15;;;4.88;;
35693;SDS011;21812;55.536;37.664;2023-08-06T09:40:38;6.40;;;4.47;;
35693;SDS011;21812;55.536;37.664;2023-08-06T09:43:05;7.55;;;5.90;;
35693;SDS011;21812;55.536;37.664;2023-08-06T09:45:32;7.63;;;5.85;;
35693;SDS011;21812;55.536;37.664;2023-08-06T09:48:00;4.93;;;4.47;;
35693;SDS011;21812;55.536;37.664;2023-08-06T09:50:32;7.97;;;5.15;;
35693;SDS011;21812;55.536;37.664;2023-08-06T09:53:05;5.35;;;4.65;;
35693;SDS011;21812;55.536;37.664;2023-08-06T09:55:33;11.35;;;5.93;;
35693;SDS011;21812;55.536;37.664;2023-08-06T09:57:59;5.40;;;4.90;;
35693;SDS011;21812;55.536;37.664;2023-08-06T10:00:25;6.15;;;4.72;;
35693;SDS011;21812;55.536;37.664;2023-08-06T10:02:52;6.28;;;5.78;;
35693;SDS011;21812;55.536;37.664;2023-08-06T10:05:22;5.22;;;4.28;;
35693;SDS011;21812;55.536;37.664;2023-08-06T10:07:49;7.40;;;4.70;;
35693;SDS011;21812;55.536;37.664;2023-08-06T10:10:17;6.40;;;4.30;;
35693;SDS011;21812;55.536;37.664;2023-08-06T10:12:47;8.35;;;5.28;;
35693;SDS011;21812;55.536;37.664;2023-08-06T10:15:16;5.45;;;4.95;;
35693;SDS011;21812;55.536;37.664;2023-08-06T10:17:47;5.78;;;4.82;;
35693;SDS011;21812;55.536;37.664;2023-08-06T10:20:14;5.35;;;4.20;;
35693;SDS011;21812;55.536;37.664;2023-08-06T10:22:43;6.72;;;4.80;;
35693;SDS011;21812;55.536;37.664;2023-08-06T10:25:10;7.50;;;4.63;;
35693;SDS011;21812;55.536;37.664;2023-08-06T10:30:28;5.68;;;5.03;;
35693;SDS011;21812;55.536;37.664;2023-08-06T10:32:58;9.50;;;4.68;;
35693;SDS011;21812;55.536;37.664;2023-08-06T10:35:35;6.25;;;5.65;;
35693;SDS011;21812;55.536;37.664;2023-08-06T10:38:04;4.80;;;4.32;;
35693;SDS011;21812;55.536;37.664;2023-08-06T10:40:31;6.78;;;5.78;;
35693;SDS011;21812;55.536;37.664;2023-08-06T10:43:01;7.95;;;4.20;;
35693;SDS011;21812;55.536;37.664;2023-08-06T10:45:28;8.05;;;6.65;;
35693;SDS011;21812;55.536;37.664;2023-08-06T10:47:55;5.97;;;4.35;;
35693;SDS011;21812;55.536;37.664;2023-08-06T10:50:23;7.22;;;6.35;;
35693;SDS011;21812;55.536;37.664;2023-08-06T10:52:49;7.25;;;5.35;;
35693;SDS011;21812;55.536;37.664;2023-08-06T10:55:22;4.82;;;4.32;;
35693;SDS011;21812;55.536;37.664;2023-08-06T10:57:50;10.65;;;4.20;;
35693;SDS011;21812;55.536;37.664;2023-08-06T11:00:16;6.05;;;4.85;;
35693;SDS011;21812;55.536;37.664;2023-08-06T11:02:42;5.60;;;4.95;;
35693;SDS011;21812;55.536;37.664;2023-08-06T11:05:09;6.18;;;4.40;;
35693;SDS011;21812;55.536;37.664;2023-08-06T11:07:36;5.50;;;4.65;;
35693;SDS011;21812;55.536;37.664;2023-08-06T11:10:03;6.97;;;4.88;;
35693;SDS011;21812;55.536;37.664;2023-08-06T11:12:31;7.25;;;5.75;;
35693;SDS011;21812;55.536;37.664;2023-08-06T11:14:57;5.38;;;4.32;;
35693;SDS011;21812;55.536;37.664;2023-08-06T11:17:24;5.57;;;4.80;;
35693;SDS011;21812;55.536;37.664;2023-08-06T11:19:50;4.65;;;3.80;;
35693;SDS011;21812;55.536;37.664;2023-08-06T11:22:15;6.32;;;4.00;;
35693;SDS011;21812;55.536;37.664;2023-08-06T11:24:42;5.85;;;4.05;;
35693;SDS011;21812;55.536;37.664;2023-08-06T11:27:14;4.65;;;4.18;;
35693;SDS011;21812;55.536;37.664;2023-08-06T11:29:41;8.45;;;4.07;;
35693;SDS011;21812;55.536;37.664;2023-08-06T11:32:08;10.25;;;5.13;;
35693;SDS011;21812;55.536;37.664;2023-08-06T11:34:34;3.92;;;3.53;;
35693;SDS011;21812;55.536;37.664;2023-08-06T11:37:02;3.65;;;2.88;;
35693;SDS011;21812;55.536;37.664;2023-08-06T11:39:31;9.90;;;3.58;;
35693;SDS011;21812;55.536;37.664;2023-08-06T11:41:58;9.23;;;3.47;;
35693;SDS011;21812;55.536;37.664;2023-08-06T11:44:25;4.22;;;3.10;;
35693;SDS011;21812;55.536;37.664;2023-08-06T11:54:45;4.80;;;4.30;;
35693;SDS011;21812;55.536;37.664;2023-08-06T11:57:39;12.60;;;5.13;;
35693;SDS011;21812;55.536;37.664;2023-08-06T12:00:13;16.83;;;5.20;;
35693;SDS011;21812;55.536;37.664;2023-08-06T12:02:43;10.55;;;4.57;;
35693;SDS011;21812;55.536;37.664;2023-08-06T12:05:14;7.97;;;4.55;;
35693;SDS011;21812;55.536;37.664;2023-08-06T12:07:42;8.65;;;4.57;;
35693;SDS011;21812;55.536;37.664;2023-08-06T12:10:09;11.55;;;5.57;;
35693;SDS011;21812;55.536;37.664;2023-08-06T12:12:35;6.43;;;4.05;;
35693;SDS011;21812;55.536;37.664;2023-08-06T12:15:02;6.35;;;4.30;;
35693;SDS011;21812;55.536;37.664;2023-08-06T12:17:31;13.85;;;5.03;;
35693;SDS011;21812;55.536;37.664;2023-08-06T12:19:57;13.98;;;5.70;;
35693;SDS011;21812;55.536;37.664;2023-08-06T12:22:23;6.78;;;3.92;;
35693;SDS011;21812;55.536;37.664;2023-08-06T12:24:49;7.40;;;4.60;;
35693;SDS011;21812;55.536;37.664;2023-08-06T12:27:15;10.85;;;3.78;;
35693;SDS011;21812;55.536;37.664;2023-08-06T12:29:42;9.15;;;4.25;;
35693;SDS011;21812;55.536;37.664;2023-08-06T12:32:12;7.72;;;4.15;;
35693;SDS011;21812;55.536;37.664;2023-08-06T12:34:38;8.02;;;3.67;;
35693;SDS011;21812;55.536;37.664;2023-08-06T12:37:05;7.65;;;4.25;;
35693;SDS011;21812;55.536;37.664;2023-08-06T12:39:32;8.52;;;3.90;;
35693;SDS011;21812;55.536;37.664;2023-08-06T12:41:59;7.97;;;4.28;;
35693;SDS011;21812;55.536;37.664;2023-08-06T12:44:26;5.15;;;4.05;;
35693;SDS011;21812;55.536;37.664;2023-08-06T12:46:52;6.30;;;3.90;;
35693;SDS011;21812;55.536;37.664;2023-08-06T12:49:18;4.75;;;3.25;;
35693;SDS011;21812;55.536;37.664;2023-08-06T12:51:46;8.27;;;4.55;;
35693;SDS011;21812;55.536;37.664;2023-08-06T12:54:13;6.10;;;5.05;;
35693;SDS011;21812;55.536;37.664;2023-08-06T12:56:39;7.32;;;3.75;;
35693;SDS011;21812;55.536;37.664;2023-08-06T12:59:04;5.75;;;4.25;;
35693;SDS011;21812;55.536;37.664;2023-08-06T13:01:30;6.95;;;3.90;;
35693;SDS011;21812;55.536;37.664;2023-08-06T13:03:56;4.57;;;3.75;;
35693;SDS011;21812;55.536;37.664;2023-08-06T13:06:24;8.32;;;3.90;;
35693;SDS011;21812;55.536;37.664;2023-08-06T13:08:49;4.45;;;3.53;;
35693;SDS011;21812;55.536;37.664;2023-08-06T13:11:15;5.07;;;3.42;;
35693;SDS011;21812;55.536;37.664;2023-08-06T13:13:41;6.90;;;4.65;;
35693;SDS011;21812;55.536;37.664;2023-08-06T13:16:06;5.15;;;3.33;;
35693;SDS011;21812;55.536;37.664;2023-08-06T13:18:32;5.80;;;4.50;;
35693;SDS011;21812;55.536;37.664;2023-08-06T13:20:58;9.10;;;5.28;;
35693;SDS011;21812;55.536;37.664;2023-08-06T13:23:23;4.95;;;4.43;;
35693;SDS011;21812;55.536;37.664;2023-08-06T13:25:49;6.38;;;3.95;;
35693;SDS011;21812;55.536;37.664;2023-08-06T13:28:15;11.88;;;7.63;;
35693;SDS011;21812;55.536;37.664;2023-08-06T13:30:40;5.20;;;4.22;;
35693;SDS011;21812;55.536;37.664;2023-08-06T13:33:09;9.02;;;4.07;;
35693;SDS011;21812;55.536;37.664;2023-08-06T13:35:35;8.70;;;4.40;;
35693;SDS011;21812;55.536;37.664;2023-08-06T13:38:01;6.15;;;4.70;;
35693;SDS011;21812;55.536;37.664;2023-08-06T13:40:33;5.35;;;4.72;;
35693;SDS011;21812;55.536;37.664;2023-08-06T13:43:00;7.57;;;4.25;;
35693;SDS011;21812;55.536;37.664;2023-08-06T13:45:26;6.72;;;4.45;;
35693;SDS011;21812;55.536;37.664;2023-08-06T13:47:51;17.63;;;5.38;;
35693;SDS011;21812;55.536;37.664;2023-08-06T13:50:17;8.77;;;4.78;;
35693;SDS011;21812;55.536;37.664;2023-08-06T13:52:44;5.65;;;4.93;;
35693;SDS011;21812;55.536;37.664;2023-08-06T13:55:10;5.80;;;4.68;;
35693;SDS011;21812;55.536;37.664;2023-08-06T13:57:35;12.10;;;5.03;;
35693;SDS011;21812;55.536;37.664;2023-08-06T14:00:02;7.10;;;4.80;;
35693;SDS011;21812;55.536;37.664;2023-08-06T14:02:38;14.40;;;8.55;;
35693;SDS011;21812;55.536;37.664;2023-08-06T14:05:04;7.75;;;4.22;;
35693;SDS011;21812;55.536;37.664;2023-08-06T14:07:31;6.70;;;4.80;;
35693;SDS011;21812;55.536;37.664;2023-08-06T14:09:56;10.23;;;5.25;;
35693;SDS011;21812;55.536;37.664;2023-08-06T14:12:23;8.90;;;4.18;;
35693;SDS011;21812;55.536;37.664;2023-08-06T14:14:49;9.18;;;4.68;;
35693;SDS011;21812;55.536;37.664;2023-08-06T14:17:15;8.52;;;4.43;;
35693;SDS011;21812;55.536;37.664;2023-08-06T14:19:41;5.45;;;4.18;;
35693;SDS011;21812;55.536;37.664;2023-08-06T14:22:06;7.75;;;5.07;;
35693;SDS011;21812;55.536;37.664;2023-08-06T14:24:32;6.13;;;5.38;;
35693;SDS011;21812;55.536;37.664;2023-08-06T14:26:58;10.68;;;5.15;;
35693;SDS011;21812;55.536;37.664;2023-08-06T14:29:23;11.18;;;4.57;;
35693;SDS011;21812;55.536;37.664;2023-08-06T14:31:50;6.97;;;4.40;;
35693;SDS011;21812;55.536;37.664;2023-08-06T14:34:16;7.57;;;4.50;;
35693;SDS011;21812;55.536;37.664;2023-08-06T14:36:42;4.35;;;3.90;;
35693;SDS011;21812;55.536;37.664;2023-08-06T14:39:07;12.43;;;6.03;;
35693;SDS011;21812;55.536;37.664;2023-08-06T14:41:33;9.20;;;4.68;;
35693;SDS011;21812;55.536;37.664;2023-08-06T14:43:59;5.32;;;4.80;;
35693;SDS011;21812;55.536;37.664;2023-08-06T14:46:25;7.65;;;4.78;;